EDT,Max TemperatureF,Mean TemperatureF,Min TemperatureF,Max Dew PointF,MeanDew PointF,Min DewpointF,Max Humidity, Mean Humidity, Min Humidity, Max Sea Level PressureIn, Mean Sea Level PressureIn, Min Sea Level PressureIn, Max VisibilityMiles, Mean VisibilityMiles, Min VisibilityMiles, Max Wind SpeedMPH, Mean Wind SpeedMPH, Max Gust SpeedMPH,PrecipitationIn, CloudCover, Events, WindDirDegrees
2012-10-1,78,73,69,74,69,63,94,85,76,29.94,29.91,29.86,10,8,1,14,9,23,0.16,6,Rain,73
2012-10-2,80,78,75,78,75,72,96,92,89,30.04,29.94,29.88,10,8,2,12,7,23,0.41,4,,170
2012-10-3,88,82,75,76,75,73,94,83,63,30.19,30.12,30.04,10,10,7,10,7,,0.00,1,,200
2012-10-4,84,80,75,75,71,68,94,77,57,30.23,30.18,30.14,10,9,4,7,5,,0.01,1,,224
2012-10-5,80,76,72,68,66,63,84,73,56,30.16,30.11,30.05,10,10,10,9,6,,0.00,0,,12
2012-10-6,84,75,68,68,64,60,87,70,47,30.04,29.97,29.91,10,10,5,15,5,28,0.00,0,,225
2012-10-7,82,72,63,72,68,59,94,80,69,30.11,29.99,29.95,10,10,2,16,6,26,0.17,5,Rain,357
2012-10-8,72,67,62,66,62,57,94,84,75,30.18,30.08,30.02,10,10,9,17,13,23,0.10,7,Rain,22
2012-10-9,70,65,60,67,61,58,94,90,84,30.09,30.05,30.01,10,7,2,15,9,,0.00,8,,328
2012-10-10,70,65,60,59,56,52,94,78,55,30.09,30.05,29.98,10,10,8,10,7,,0.00,6,Rain,275
2012-10-11,69,64,59,56,52,49,75,64,52,30.28,30.22,30.10,10,10,10,16,10,23,0.00,0,,27
2012-10-12,73,65,57,58,51,47,86,60,44,30.32,30.22,30.14,10,10,10,20,6,26,0.00,0,,329
2012-10-13,68,64,60,58,51,48,75,61,52,30.43,30.38,30.32,10,10,10,20,15,28,0.00,0,Rain,46
2012-10-14,78,69,63,66,63,59,93,77,58,30.33,30.22,30.09,10,10,9,9,6,,0.00,0,,66
2012-10-15,82,73,66,68,64,60,90,78,52,30.06,29.87,29.75,10,10,10,16,5,23,0.00,2,,240
2012-10-16,68,64,60,63,50,44,84,61,47,29.96,29.88,29.79,10,10,10,18,13,30,0.00,1,Rain,356
2012-10-17,68,62,57,59,53,49,81,70,52,30.04,29.99,29.95,10,9,2,9,4,,0.00,0,,87
2012-10-18,79,72,64,70,63,54,90,74,42,29.96,29.91,29.83,10,10,5,10,5,,0.00,3,,94
2012-10-19,84,75,66,71,68,64,96,86,55,29.83,29.79,29.74,10,5,0,16,6,21,0.01,2,Fog,192
2012-10-20,78,66,55,59,49,39,81,56,25,29.93,29.84,29.81,10,10,10,16,9,21,0.00,0,,240
2012-10-21,70,63,57,53,50,48,70,63,49,30.15,30.06,29.93,10,10,10,13,8,18,0.00,0,,360
2012-10-22,71,64,57,52,48,44,81,57,39,30.24,30.19,30.15,10,9,2,12,6,,0.00,0,,339
2012-10-23,78,67,59,56,53,47,83,66,39,30.22,30.18,30.14,10,10,10,8,6,,0.00,0,,230
2012-10-24,81,70,60,65,61,54,97,81,50,30.21,30.16,30.12,10,8,1,9,5,,0.00,0,,246
2012-10-25,75,70,64,67,65,63,100,89,66,30.19,30.13,30.10,10,4,0,10,3,,0.02,0,Fog,31
2012-10-26,75,70,64,70,66,63,100,89,76,30.10,29.98,29.84,10,6,0,20,11,26,0.10,3,Fog-Rain,17
2012-10-27,73,70,66,70,66,65,100,84,76,29.81,29.59,29.47,10,6,2,33,23,51,1.60,7,Rain,20
2012-10-28,66,62,59,,,,,,,29.46,29.38,29.30,10,5,1,45,37,58,1.34,8,Rain,349
2012-10-29,59,54,50,40,40,40,68,68,68,29.37,29.34,29.29,10,10,7,33,27,51,0.01,8,Rain,276
2012-10-30,59,52,48,44,39,36,77,61,44,29.65,29.49,29.36,10,10,10,25,17,34,0.00,5,,246
2012-10-31,60,52,46,43,39,37,73,60,46,29.79,29.71,29.66,10,10,10,14,10,24,0.00,2,,252